Observation data for Tulia on 05/29/2019      Previous  Date  Next       Current Mesonet Observations  Soil Data  Daily Summary Page  Observations in Plain Language
KTIS 290500Z 23001KT 13/06 A298 RMK A01 T01330058  RH  062%=      5-min Rain = 0
KTIS 290505Z 25002KT 13/06 A298 RMK A01 T01310055  RH  062%=      5-min Rain = 0
KTIS 290510Z 26004KT 15/03 A2979 RMK A01 T01460033  RH  048%=      5-min Rain = 0
KTIS 290515Z 26004KT 16/03 A2979 RMK A01 T01560033  RH  044%=      5-min Rain = 0
KTIS 290520Z 27003KT 16/05 A2979 RMK A01 T01570052  RH  051%=      5-min Rain = 0
KTIS 290525Z 27004KT 15/07 A2979 RMK A01 T01500069  RH  060%=      5-min Rain = 0
KTIS 290530Z 26005KT 15/06 A298 RMK A01 T01450063  RH  059%=      5-min Rain = 0
KTIS 290535Z 26005KT 15/05 A298 RMK A01 T01480051  RH  053%=      5-min Rain = 0
KTIS 290540Z 27004KT 15/06 A298 RMK A01 T01460064  RH  059%=      5-min Rain = 0
KTIS 290545Z 26004KT 15/07 A298 RMK A01 T01450072  RH  063%=      5-min Rain = 0
KTIS 290550Z 27004KT 14/08 A298 RMK A01 T01430080  RH  068%=      5-min Rain = 0
KTIS 290555Z 27004KT 14/07 A298 RMK A01 T01420074  RH  065%=      5-min Rain = 0
KTIS 290600Z 27005KT 14/06 A298 RMK A01 T01440063  RH  060%=      5-min Rain = 0
KTIS 290605Z 28006KT 15/05 A298 RMK A01 T01460053  RH  055%=      5-min Rain = 0
KTIS 290610Z 28006KT 15/05 A298 RMK A01 T01490047  RH  051%=      5-min Rain = 0
KTIS 290615Z 28006KT 15/05 A298 RMK A01 T01510047  RH  051%=      5-min Rain = 0
KTIS 290620Z 28005KT 15/05 A298 RMK A01 T01520050  RH  052%=      5-min Rain = 0
KTIS 290625Z 28005KT 15/05 A298 RMK A01 T01510053  RH  053%=      5-min Rain = 0
KTIS 290630Z 28005KT 15/06 A2979 RMK A01 T01510059  RH  055%=      5-min Rain = 0
KTIS 290635Z 28005KT 15/06 A2979 RMK A01 T01480064  RH  058%=      5-min Rain = 0
KTIS 290640Z 28006KT 15/06 A2979 RMK A01 T01470060  RH  057%=      5-min Rain = 0
KTIS 290645Z 28005KT 15/05 A2979 RMK A01 T01510054  RH  054%=      5-min Rain = 0
KTIS 290650Z 28005KT 16/05 A298 RMK A01 T01550052  RH  052%=      5-min Rain = 0
KTIS 290655Z 28006KT 16/05 A298 RMK A01 T01580045  RH  048%=      5-min Rain = 0
KTIS 290700Z 28006KT 16/04 A298 RMK A01 T01600042  RH  046%=      5-min Rain = 0
KTIS 290705Z 27005KT 16/04 A298 RMK A01 T01610044  RH  047%=      5-min Rain = 0
KTIS 290710Z 27005KT 16/04 A298 RMK A01 T01610044  RH  047%=      5-min Rain = 0
KTIS 290715Z 27005KT 16/04 A298 RMK A01 T01620043  RH  046%=      5-min Rain = 0
KTIS 290720Z 27005KT 16/05 A298 RMK A01 T01620047  RH  048%=      5-min Rain = 0
KTIS 290725Z 28005KT 16/05 A298 RMK A01 T01600051  RH  049%=      5-min Rain = 0
KTIS 290730Z 29005KT 16/05 A2979 RMK A01 T01590046  RH  048%=      5-min Rain = 0
KTIS 290735Z 28005KT 16/06 A298 RMK A01 T01570055  RH  052%=      5-min Rain = 0
KTIS 290740Z 28005KT 16/05 A298 RMK A01 T01580051  RH  050%=      5-min Rain = 0
KTIS 290745Z 29005KT 16/06 A298 RMK A01 T01550056  RH  053%=      5-min Rain = 0
KTIS 290750Z 29003KT 15/06 A2979 RMK A01 T01510062  RH  057%=      5-min Rain = 0
KTIS 290755Z 09004G10KT 15/08 A2979 RMK A01 T01450077  RH  065%=      5-min Rain = 0
KTIS 290800Z 09005G11KT 14/08 A2979 RMK A01 T01390079  RH  069%=      5-min Rain = 0
KTIS 290805Z 09001KT 14/08 A2979 RMK A01 T01410081  RH  069%=      5-min Rain = 0
KTIS 290810Z 31002KT 14/09 A2979 RMK A01 T01400086  RH  072%=      5-min Rain = 0
KTIS 290815Z 28004KT 14/08 A2979 RMK A01 T01400076  RH  067%=      5-min Rain = 0
KTIS 290820Z 28002KT 14/07 A2979 RMK A01 T01430074  RH  065%=      5-min Rain = 0
KTIS 290825Z 28000KT 14/08 A2979 RMK A01 T01390080  RH  069%=      5-min Rain = 0
KTIS 290830Z 28002KT 13/08 A2978 RMK A01 T01320082  RH  073%=      5-min Rain = 0
KTIS 290835Z 28001KT 13/08 A2978 RMK A01 T01270084  RH  077%=      5-min Rain = 0
KTIS 290840Z 28001KT 13/08 A2979 RMK A01 T01270077  RH  074%=      5-min Rain = 0
KTIS 290845Z 28001KT 13/08 A2979 RMK A01 T01300083  RH  076%=      5-min Rain = 0
KTIS 290850Z 12003KT 13/09 A2979 RMK A01 T01320087  RH  076%=      5-min Rain = 0
KTIS 290855Z 11002KT 13/09 A298 RMK A01 T01320086  RH  076%=      5-min Rain = 0
KTIS 290900Z 31003KT 13/09 A298 RMK A01 T01340092  RH  078%=      5-min Rain = 0
KTIS 290905Z 35007KT 13/08 A2981 RMK A01 T01300083  RH  075%=      5-min Rain = 0
KTIS 290910Z 35008KT 13/08 A298 RMK A01 T01320076  RH  071%=      5-min Rain = 0
KTIS 290915Z 33009KT 13/08 A2981 RMK A01 T01330077  RH  071%=      5-min Rain = 0
KTIS 290920Z 34009KT 13/08 A298 RMK A01 T01320077  RH  071%=      5-min Rain = 0
KTIS 290925Z 34008KT 13/07 A298 RMK A01 T01330074  RH  069%=      5-min Rain = 0
KTIS 290930Z 34008KT 13/07 A2981 RMK A01 T01340068  RH  066%=      5-min Rain = 0
KTIS 290935Z 34010KT 14/06 A2981 RMK A01 T01370060  RH  061%=      5-min Rain = 0
KTIS 290940Z 34012KT 14/06 A2982 RMK A01 T01370056  RH  059%=      5-min Rain = 0
KTIS 290945Z 34011KT 14/06 A2982 RMK A01 T01350055  RH  060%=      5-min Rain = 0
KTIS 290950Z 36010KT 13/06 A2982 RMK A01 T01340056  RH  061%=      5-min Rain = 0
KTIS 290955Z 02011KT 14/06 A2981 RMK A01 T01370064  RH  063%=      5-min Rain = 0
KTIS 291000Z 01011KT 14/07 A2981 RMK A01 T01360072  RH  067%=      5-min Rain = 0
KTIS 291005Z 35011G16KT 13/08 A2982 RMK A01 T01320080  RH  073%=      5-min Rain = 0
KTIS 291010Z 00013KT 13/08 A2981 RMK A01 T01290084  RH  077%=      5-min Rain = 0
KTIS 291015Z 00013G18KT 13/09 A2981 RMK A01 T01300086  RH  077%=      5-min Rain = 0
KTIS 291020Z 36010KT 13/09 A2982 RMK A01 T01270087  RH  079%=      5-min Rain = 0
KTIS 291025Z 00012KT 13/09 A2983 RMK A01 T01270088  RH  080%=      5-min Rain = 0
KTIS 291030Z 01009KT 13/09 A2983 RMK A01 T01260089  RH  081%=      5-min Rain = 0
KTIS 291035Z 01008KT 13/09 A2983 RMK A01 T01260090  RH  081%=      5-min Rain = 0
KTIS 291040Z 00010KT 13/09 A2983 RMK A01 T01250090  RH  082%=      5-min Rain = 0
KTIS 291045Z 01009KT 12/09 A2983 RMK A01 T01240090  RH  082%=      5-min Rain = 0
KTIS 291050Z 36009KT 12/09 A2983 RMK A01 T01240090  RH  082%=      5-min Rain = 0
KTIS 291055Z 00012KT 13/09 A2983 RMK A01 T01250090  RH  082%=      5-min Rain = 0
KTIS 291100Z 01010KT 13/09 A2983 RMK A01 T01250090  RH  082%=      5-min Rain = 0
KTIS 291105Z 01010G15KT 13/09 A2983 RMK A01 T01250090  RH  081%=      5-min Rain = 0
KTIS 291110Z 01010KT 13/09 A2984 RMK A01 T01250090  RH  081%=      5-min Rain = 0
KTIS 291115Z 01009KT 13/09 A2984 RMK A01 T01250090  RH  081%=      5-min Rain = 0
KTIS 291120Z 01009KT 13/09 A2984 RMK A01 T01250090  RH  082%=      5-min Rain = 0
KTIS 291125Z 01012KT 13/09 A2984 RMK A01 T01260088  RH  080%=      5-min Rain = 0
KTIS 291130Z 01012KT 13/09 A2984 RMK A01 T01260086  RH  079%=      5-min Rain = 0
KTIS 291135Z 00012KT 13/09 A2984 RMK A01 T01250085  RH  079%=      5-min Rain = 0
KTIS 291140Z 01013KT 13/08 A2984 RMK A01 T01260083  RH  078%=      5-min Rain = 0
KTIS 291145Z 01011G17KT 13/08 A2984 RMK A01 T01260083  RH  077%=      5-min Rain = 0
KTIS 291150Z 01011G16KT 13/08 A2985 RMK A01 T01250082  RH  077%=      5-min Rain = 0
KTIS 291155Z 02011G16KT 13/08 A2985 RMK A01 T01250083  RH  078%=      5-min Rain = 0
KTIS 291200Z 02012G17KT 13/08 A2985 RMK A01 T01250083  RH  078%=      5-min Rain = 0
KTIS 291205Z 02013KT 13/08 A2985 RMK A01 T01260083  RH  077%=      5-min Rain = 0
KTIS 291210Z 01012G17KT 13/08 A2984 RMK A01 T01270084  RH  077%=      5-min Rain = 0
KTIS 291215Z 36014KT 13/09 A2984 RMK A01 T01270085  RH  078%=      5-min Rain = 0
KTIS 291220Z 00013G18KT 13/09 A2984 RMK A01 T01270085  RH  078%=      5-min Rain = 0
KTIS 291225Z 35015G21KT 13/09 A2984 RMK A01 T01280087  RH  078%=      5-min Rain = 0
KTIS 291230Z 35016KT 13/09 A2984 RMK A01 T01280087  RH  079%=      5-min Rain = 0
KTIS 291235Z 36017G23KT 13/09 A2984 RMK A01 T01280086  RH  078%=      5-min Rain = 0
KTIS 291240Z 35017G22KT 13/09 A2984 RMK A01 T01290085  RH  077%=      5-min Rain = 0
KTIS 291245Z 35016KT 13/09 A2984 RMK A01 T01300085  RH  076%=      5-min Rain = 0
KTIS 291250Z 35017G22KT 13/08 A2984 RMK A01 T01310084  RH  075%=      5-min Rain = 0
KTIS 291255Z 34017KT 13/08 A2985 RMK A01 T01310084  RH  075%=      5-min Rain = 0
KTIS 291300Z 35018KT 13/08 A2985 RMK A01 T01280083  RH  076%=      5-min Rain = 0
KTIS 291305Z 35017KT 13/08 A2984 RMK A01 T01290084  RH  076%=      5-min Rain = 0
KTIS 291310Z 35018KT 13/08 A2984 RMK A01 T01290083  RH  075%=      5-min Rain = 0
KTIS 291315Z 35017G22KT 13/08 A2984 RMK A01 T01320083  RH  075%=      5-min Rain = 0
KTIS 291320Z 34017KT 13/08 A2985 RMK A01 T01320084  RH  075%=      5-min Rain = 0
KTIS 291325Z 35018G23KT 13/08 A2985 RMK A01 T01340083  RH  074%=      5-min Rain = 0
KTIS 291330Z 36019G25KT 14/08 A2984 RMK A01 T01350081  RH  072%=      5-min Rain = 0
KTIS 291335Z 36019G24KT 14/08 A2984 RMK A01 T01370080  RH  071%=      5-min Rain = 0
KTIS 291340Z 35019G25KT 14/08 A2984 RMK A01 T01390079  RH  069%=      5-min Rain = 0
KTIS 291345Z 36020G27KT 14/08 A2984 RMK A01 T01400076  RH  067%=      5-min Rain = 0
KTIS 291350Z 36019G26KT 14/08 A2985 RMK A01 T01420077  RH  067%=      5-min Rain = 0
KTIS 291355Z 36019KT 15/08 A2985 RMK A01 T01450076  RH  065%=      5-min Rain = 0
KTIS 291400Z 00018G23KT 15/08 A2986 RMK A01 T01470075  RH  064%=      5-min Rain = 0
KTIS 291405Z 36019KT 15/07 A2986 RMK A01 T01480074  RH  063%=      5-min Rain = 0
KTIS 291410Z 35017G23KT 15/08 A2987 RMK A01 T01490075  RH  063%=      5-min Rain = 0
KTIS 291415Z 36018G24KT 15/08 A2987 RMK A01 T01530075  RH  061%=      5-min Rain = 0
KTIS 291420Z 00019G25KT 15/07 A2987 RMK A01 T01530074  RH  061%=      5-min Rain = 0
KTIS 291425Z 00020G25KT 15/07 A2986 RMK A01 T01540074  RH  061%=      5-min Rain = 0
KTIS 291430Z 36020KT 16/07 A2986 RMK A01 T01560074  RH  059%=      5-min Rain = 0
KTIS 291435Z 36021G26KT 16/07 A2987 RMK A01 T01590073  RH  058%=      5-min Rain = 0
KTIS 291440Z 00019G25KT 16/07 A2987 RMK A01 T01580073  RH  059%=      5-min Rain = 0
KTIS 291445Z 36020G25KT 16/07 A2987 RMK A01 T01590072  RH  058%=      5-min Rain = 0
KTIS 291450Z 36018G24KT 16/08 A2987 RMK A01 T01590075  RH  059%=      5-min Rain = 0
KTIS 291455Z 00017G23KT 16/07 A2988 RMK A01 T01580073  RH  059%=      5-min Rain = 0
KTIS 291500Z 00016G21KT 16/07 A2989 RMK A01 T01570072  RH  059%=      5-min Rain = 0
KTIS 291505Z 02014G21KT 16/07 A299 RMK A01 T01580072  RH  058%=      5-min Rain = 0
KTIS 291510Z 01014G20KT 16/07 A299 RMK A01 T01570072  RH  058%=      5-min Rain = 0
KTIS 291515Z 02012G18KT 16/07 A2991 RMK A01 T01570073  RH  059%=      5-min Rain = 0
KTIS 291520Z 03012G17KT 16/08 A2992 RMK A01 T01610076  RH  059%=      5-min Rain = 0
KTIS 291525Z 03014G19KT 16/08 A2992 RMK A01 T01610075  RH  058%=      5-min Rain = 0
KTIS 291530Z 03015KT 16/08 A2992 RMK A01 T01620077  RH  058%=      5-min Rain = 0
KTIS 291535Z 02016G21KT 17/08 A2991 RMK A01 T01650077  RH  058%=      5-min Rain = 0
KTIS 291540Z 02015G21KT 16/08 A299 RMK A01 T01640078  RH  058%=      5-min Rain = 0
KTIS 291545Z 03015G20KT 16/08 A299 RMK A01 T01640079  RH  059%=      5-min Rain = 0
KTIS 291550Z 01013KT 16/08 A2989 RMK A01 T01630079  RH  059%=      5-min Rain = 0
KTIS 291555Z 00015G21KT 16/08 A2989 RMK A01 T01630081  RH  060%=      5-min Rain = 0
KTIS 291600Z 00015G20KT 17/08 A2989 RMK A01 T01690084  RH  059%=      5-min Rain = 0
KTIS 291605Z 01015G21KT 17/08 A2989 RMK A01 T01690083  RH  059%=      5-min Rain = 0
KTIS 291610Z 01014G22KT 17/08 A2989 RMK A01 T01700083  RH  058%=      5-min Rain = 0
KTIS 291615Z 01015G23KT 17/08 A2989 RMK A01 T01710084  RH  058%=      5-min Rain = 0
KTIS 291620Z 02013G20KT 17/09 A2989 RMK A01 T01730085  RH  058%=      5-min Rain = 0
KTIS 291625Z 02014G20KT 17/08 A2989 RMK A01 T01690083  RH  058%=      5-min Rain = 0
KTIS 291630Z 01014G20KT 17/09 A2989 RMK A01 T01700085  RH  059%=      5-min Rain = 0
KTIS 291635Z 01014G21KT 18/09 A2989 RMK A01 T01760088  RH  058%=      5-min Rain = 0
KTIS 291640Z 01013G20KT 18/09 A2989 RMK A01 T01750087  RH  058%=      5-min Rain = 0
KTIS 291645Z 02014G19KT 18/09 A2989 RMK A01 T01790086  RH  056%=      5-min Rain = 0
KTIS 291650Z 02014G19KT 18/09 A2989 RMK A01 T01760085  RH  057%=      5-min Rain = 0
KTIS 291655Z 02014G19KT 18/09 A2989 RMK A01 T01760085  RH  057%=      5-min Rain = 0
KTIS 291700Z 02013G18KT 18/09 A2989 RMK A01 T01790086  RH  056%=      5-min Rain = 0
KTIS 291705Z 01015G21KT 18/08 A2989 RMK A01 T01790084  RH  055%=      5-min Rain = 0
KTIS 291710Z 00014G22KT 18/08 A299 RMK A01 T01810084  RH  055%=      5-min Rain = 0
KTIS 291715Z 01014G22KT 18/08 A299 RMK A01 T01800084  RH  055%=      5-min Rain = 0
KTIS 291720Z 01013G19KT 18/08 A299 RMK A01 T01810084  RH  055%=      5-min Rain = 0
KTIS 291725Z 02013G22KT 18/08 A299 RMK A01 T01820084  RH  054%=      5-min Rain = 0
KTIS 291730Z 01014G20KT 18/08 A2991 RMK A01 T01830082  RH  053%=      5-min Rain = 0
KTIS 291735Z 01013G19KT 18/08 A2991 RMK A01 T01800081  RH  054%=      5-min Rain = 0
KTIS 291740Z 01013KT 19/08 A2991 RMK A01 T01870083  RH  052%=      5-min Rain = 0
KTIS 291745Z 01013KT 19/08 A2991 RMK A01 T01920084  RH  051%=      5-min Rain = 0
KTIS 291750Z 01013G20KT 19/08 A2991 RMK A01 T01920080  RH  050%=      5-min Rain = 0
KTIS 291755Z 01013KT 19/09 A2991 RMK A01 T01920085  RH  051%=      5-min Rain = 0
KTIS 291800Z 36013G19KT 20/09 A2992 RMK A01 T01950088  RH  051%=      5-min Rain = 0
KTIS 291805Z 36015G20KT 20/09 A2992 RMK A01 T01950085  RH  050%=      5-min Rain = 0
KTIS 291810Z 00015G20KT 20/09 A2992 RMK A01 T01980087  RH  050%=      5-min Rain = 0
KTIS 291815Z 36014G20KT 20/09 A2992 RMK A01 T02010087  RH  049%=      5-min Rain = 0
KTIS 291820Z 00013G18KT 20/08 A2992 RMK A01 T01980082  RH  048%=      5-min Rain = 0
KTIS 291825Z 36013KT 21/09 A2992 RMK A01 T02050085  RH  048%=      5-min Rain = 0
KTIS 291830Z 36012G18KT 20/08 A2992 RMK A01 T02030083  RH  047%=      5-min Rain = 0
KTIS 291835Z 00010G15KT 20/08 A2992 RMK A01 T02030082  RH  047%=      5-min Rain = 0
KTIS 291840Z 01011G16KT 21/09 A2992 RMK A01 T02090085  RH  046%=      5-min Rain = 0
KTIS 291845Z 01012G18KT 21/09 A2992 RMK A01 T02110085  RH  046%=      5-min Rain = 0
KTIS 291850Z 01013G18KT 21/09 A2992 RMK A01 T02110085  RH  046%=      5-min Rain = 0
KTIS 291855Z 01014KT 21/09 A2991 RMK A01 T02140088  RH  046%=      5-min Rain = 0
KTIS 291900Z 36012G17KT 21/08 A2992 RMK A01 T02090084  RH  046%=      5-min Rain = 0
KTIS 291905Z 00013G19KT 20/08 A2992 RMK A01 T02030083  RH  047%=      5-min Rain = 0
KTIS 291910Z 36013G19KT 21/09 A2992 RMK A01 T02050090  RH  049%=      5-min Rain = 0
KTIS 291915Z 35018G24KT 19/09 A2992 RMK A01 T01940089  RH  052%=      5-min Rain = 0
KTIS 291920Z 35019KT 19/09 A2992 RMK A01 T01900086  RH  053%=      5-min Rain = 0
KTIS 291925Z 35016KT 19/09 A2992 RMK A01 T01900086  RH  053%=      5-min Rain = 0
KTIS 291930Z 35017KT 19/09 A2992 RMK A01 T01940089  RH  052%=      5-min Rain = 0
KTIS 291935Z 36015G20KT 20/09 A2992 RMK A01 T02020091  RH  050%=      5-min Rain = 0
KTIS 291940Z 01015G21KT 20/09 A2992 RMK A01 T02040089  RH  049%=      5-min Rain = 0
KTIS 291945Z 01014G19KT 21/09 A2992 RMK A01 T02070090  RH  049%=      5-min Rain = 0
KTIS 291950Z 01013G19KT 21/09 A2991 RMK A01 T02070089  RH  048%=      5-min Rain = 0
KTIS 291955Z 01012KT 21/09 A2991 RMK A01 T02050089  RH  049%=      5-min Rain = 0
KTIS 292000Z 01013KT 21/09 A2991 RMK A01 T02060088  RH  048%=      5-min Rain = 0
KTIS 292005Z 03011G17KT 21/09 A2991 RMK A01 T02080090  RH  048%=      5-min Rain = 0
KTIS 292010Z 00012G17KT 21/09 A2991 RMK A01 T02130090  RH  047%=      5-min Rain = 0
KTIS 292015Z 00012KT 21/09 A299 RMK A01 T02120089  RH  047%=      5-min Rain = 0
KTIS 292020Z 02010G17KT 21/09 A299 RMK A01 T02130090  RH  047%=      5-min Rain = 0
KTIS 292025Z 03012G17KT 22/09 A299 RMK A01 T02160090  RH  046%=      5-min Rain = 0
KTIS 292030Z 03011KT 22/09 A299 RMK A01 T02150087  RH  045%=      5-min Rain = 0
KTIS 292035Z 03013G18KT 22/09 A299 RMK A01 T02170090  RH  046%=      5-min Rain = 0
KTIS 292040Z 03011KT 21/09 A299 RMK A01 T02120087  RH  046%=      5-min Rain = 0
KTIS 292045Z 03012KT 21/09 A2989 RMK A01 T02140090  RH  047%=      5-min Rain = 0
KTIS 292050Z 03011KT 22/09 A2989 RMK A01 T02150090  RH  046%=      5-min Rain = 0
KTIS 292055Z 02011KT 22/09 A299 RMK A01 T02170091  RH  046%=      5-min Rain = 0
KTIS 292100Z 01010G18KT 22/09 A2989 RMK A01 T02160092  RH  047%=      5-min Rain = 0
KTIS 292105Z 03012G17KT 22/09 A2989 RMK A01 T02180093  RH  046%=      5-min Rain = 0
KTIS 292110Z 02011KT 22/09 A2989 RMK A01 T02160091  RH  046%=      5-min Rain = 0
KTIS 292115Z 04012G17KT 22/09 A2989 RMK A01 T02160093  RH  047%=      5-min Rain = 0
KTIS 292120Z 03010G15KT 22/09 A2989 RMK A01 T02190093  RH  046%=      5-min Rain = 0
KTIS 292125Z 04011G16KT 22/09 A2989 RMK A01 T02190094  RH  046%=      5-min Rain = 0
KTIS 292130Z 03010KT 22/10 A2989 RMK A01 T02210096  RH  046%=      5-min Rain = 0
KTIS 292135Z 02011G18KT 22/09 A299 RMK A01 T02200093  RH  045%=      5-min Rain = 0
KTIS 292140Z 03010KT 22/09 A299 RMK A01 T02180089  RH  045%=      5-min Rain = 0
KTIS 292145Z 03011G18KT 22/09 A299 RMK A01 T02180088  RH  045%=      5-min Rain = 0
KTIS 292150Z 04011G18KT 22/09 A299 RMK A01 T02170088  RH  045%=      5-min Rain = 0
KTIS 292155Z 03011KT 22/09 A299 RMK A01 T02180085  RH  044%=      5-min Rain = 0
KTIS 292200Z 03012G17KT 22/09 A2989 RMK A01 T02190085  RH  044%=      5-min Rain = 0
KTIS 292205Z 05010G18KT 22/09 A2989 RMK A01 T02190091  RH  045%=      5-min Rain = 0
KTIS 292210Z 04011G18KT 22/09 A2989 RMK A01 T02210091  RH  045%=      5-min Rain = 0
KTIS 292215Z 02010KT 22/09 A2989 RMK A01 T02210090  RH  044%=      5-min Rain = 0
KTIS 292220Z 02010G16KT 22/09 A2989 RMK A01 T02210088  RH  044%=      5-min Rain = 0
KTIS 292225Z 03011KT 23/09 A2989 RMK A01 T02250091  RH  044%=      5-min Rain = 0
KTIS 292230Z 04010G16KT 22/09 A2989 RMK A01 T02210092  RH  045%=      5-min Rain = 0
KTIS 292235Z 03011KT 22/09 A2989 RMK A01 T02240088  RH  043%=      5-min Rain = 0
KTIS 292240Z 03011G16KT 22/09 A2989 RMK A01 T02220091  RH  044%=      5-min Rain = 0
KTIS 292245Z 04011G17KT 22/09 A2989 RMK A01 T02220093  RH  045%=      5-min Rain = 0
KTIS 292250Z 05011KT 22/10 A2989 RMK A01 T02240095  RH  045%=      5-min Rain = 0
KTIS 292255Z 04011KT 22/10 A299 RMK A01 T02230095  RH  045%=      5-min Rain = 0
KTIS 292300Z 03013G19KT 22/09 A299 RMK A01 T02210090  RH  045%=      5-min Rain = 0
KTIS 292305Z 04012KT 22/09 A299 RMK A01 T02200090  RH  045%=      5-min Rain = 0
KTIS 292310Z 04011KT 22/09 A299 RMK A01 T02200087  RH  044%=      5-min Rain = 0
KTIS 292315Z 04011G16KT 22/09 A2991 RMK A01 T02210088  RH  044%=      5-min Rain = 0
KTIS 292320Z 04011KT 22/09 A2991 RMK A01 T02210086  RH  043%=      5-min Rain = 0
KTIS 292325Z 03009G14KT 22/09 A2991 RMK A01 T02210085  RH  043%=      5-min Rain = 0
KTIS 292330Z 02011G17KT 22/08 A2991 RMK A01 T02200083  RH  042%=      5-min Rain = 0
KTIS 292335Z 04010KT 22/08 A2991 RMK A01 T02200083  RH  043%=      5-min Rain = 0
KTIS 292340Z 04009KT 22/09 A2992 RMK A01 T02210086  RH  043%=      5-min Rain = 0
KTIS 292345Z 04008KT 22/09 A2992 RMK A01 T02210087  RH  043%=      5-min Rain = 0
KTIS 292350Z 03011KT 22/09 A2992 RMK A01 T02200085  RH  043%=      5-min Rain = 0
KTIS 292355Z 03009KT 22/09 A2992 RMK A01 T02180086  RH  044%=      5-min Rain = 0
KTIS 300000Z 02010G15KT 22/09 A2992 RMK A01 T02170087  RH  045%=      5-min Rain = 0
KTIS 300005Z 02008G14KT 22/09 A2992 RMK A01 T02180094  RH  047%=      5-min Rain = 0
KTIS 300010Z 03009KT 22/09 A2992 RMK A01 T02170091  RH  046%=      5-min Rain = 0
KTIS 300015Z 02010KT 22/09 A2992 RMK A01 T02150092  RH  047%=      5-min Rain = 0
KTIS 300020Z 01010G16KT 21/09 A2993 RMK A01 T02140093  RH  048%=      5-min Rain = 0
KTIS 300025Z 02010KT 21/09 A2993 RMK A01 T02140093  RH  047%=      5-min Rain = 0
KTIS 300030Z 03010G15KT 21/09 A2993 RMK A01 T02130093  RH  048%=      5-min Rain = 0
KTIS 300035Z 03009KT 21/09 A2993 RMK A01 T02110092  RH  048%=      5-min Rain = 0
KTIS 300040Z 05008G13KT 21/09 A2993 RMK A01 T02110094  RH  049%=      5-min Rain = 0
KTIS 300045Z 05010KT 21/10 A2993 RMK A01 T02090095  RH  049%=      5-min Rain = 0
KTIS 300050Z 03009G17KT 21/10 A2993 RMK A01 T02080095  RH  050%=      5-min Rain = 0
KTIS 300055Z 05008KT 21/10 A2993 RMK A01 T02070100  RH  052%=      5-min Rain = 0
KTIS 300100Z 04008KT 21/10 A2993 RMK A01 T02060099  RH  052%=      5-min Rain = 0
KTIS 300105Z 04010KT 21/10 A2994 RMK A01 T02050098  RH  052%=      5-min Rain = 0
KTIS 300110Z 04009KT 20/10 A2994 RMK A01 T02030098  RH  053%=      5-min Rain = 0
KTIS 300115Z 03009KT 20/10 A2994 RMK A01 T02020096  RH  052%=      5-min Rain = 0
KTIS 300120Z 02009KT 20/10 A2994 RMK A01 T02010095  RH  052%=      5-min Rain = 0
KTIS 300125Z 02009KT 20/10 A2995 RMK A01 T02000095  RH  052%=      5-min Rain = 0
KTIS 300130Z 02008KT 20/10 A2995 RMK A01 T01980095  RH  053%=      5-min Rain = 0
KTIS 300135Z 01006KT 19/10 A2995 RMK A01 T01940095  RH  054%=      5-min Rain = 0
KTIS 300140Z 01006KT 19/10 A2996 RMK A01 T01900097  RH  056%=      5-min Rain = 0
KTIS 300145Z 01006KT 19/10 A2996 RMK A01 T01880097  RH  057%=      5-min Rain = 0
KTIS 300150Z 00007KT 18/10 A2997 RMK A01 T01840096  RH  058%=      5-min Rain = 0
KTIS 300155Z 36007KT 18/10 A2997 RMK A01 T01790095  RH  060%=      5-min Rain = 0
KTIS 300200Z 35006KT 17/10 A2998 RMK A01 T01710097  RH  064%=      5-min Rain = 0
KTIS 300205Z 35006KT 17/10 A2998 RMK A01 T01650097  RH  066%=      5-min Rain = 0
KTIS 300210Z 35005KT 16/10 A2998 RMK A01 T01580097  RH  069%=      5-min Rain = 0
KTIS 300215Z 36004KT 15/10 A2999 RMK A01 T01530096  RH  071%=      5-min Rain = 0
KTIS 300220Z 01005KT 15/10 A2999 RMK A01 T01520096  RH  071%=      5-min Rain = 0
KTIS 300225Z 01003KT 15/10 A2999 RMK A01 T01530096  RH  071%=      5-min Rain = 0
KTIS 300230Z 01005KT 15/10 A2999 RMK A01 T01520096  RH  072%=      5-min Rain = 0
KTIS 300235Z 00006KT 15/10 A2999 RMK A01 T01480096  RH  073%=      5-min Rain = 0
KTIS 300240Z 35005KT 15/10 A30 RMK A01 T01460096  RH  074%=      5-min Rain = 0
KTIS 300245Z 36007KT 15/10 A30 RMK A01 T01460096  RH  074%=      5-min Rain = 0
KTIS 300250Z 00008KT 16/10 A30 RMK A01 T01560096  RH  070%=      5-min Rain = 0
KTIS 300255Z 01007KT 16/10 A30 RMK A01 T01620095  RH  067%=      5-min Rain = 0
KTIS 300300Z 01006KT 16/10 A30 RMK A01 T01610095  RH  067%=      5-min Rain = 0
KTIS 300305Z 01007KT 16/10 A30 RMK A01 T01580095  RH  069%=      5-min Rain = 0
KTIS 300310Z 00007KT 16/10 A30 RMK A01 T01550095  RH  070%=      5-min Rain = 0
KTIS 300315Z 01007KT 15/10 A3001 RMK A01 T01530095  RH  071%=      5-min Rain = 0
KTIS 300320Z 01006KT 15/10 A3001 RMK A01 T01520095  RH  071%=      5-min Rain = 0
KTIS 300325Z 01006KT 15/10 A3002 RMK A01 T01530095  RH  071%=      5-min Rain = 0
KTIS 300330Z 01005KT 15/10 A3002 RMK A01 T01520096  RH  071%=      5-min Rain = 0
KTIS 300335Z 01005KT 15/10 A3002 RMK A01 T01500096  RH  072%=      5-min Rain = 0
KTIS 300340Z 02006KT 15/10 A3002 RMK A01 T01500095  RH  072%=      5-min Rain = 0
KTIS 300345Z 02007KT 15/09 A3002 RMK A01 T01520094  RH  071%=      5-min Rain = 0
KTIS 300350Z 02007KT 15/09 A3002 RMK A01 T01540094  RH  069%=      5-min Rain = 0
KTIS 300355Z 02007KT 15/09 A3002 RMK A01 T01540093  RH  069%=      5-min Rain = 0
KTIS 300400Z 02007KT 15/09 A3002 RMK A01 T01520093  RH  070%=      5-min Rain = 0
KTIS 300405Z 02007KT 15/09 A3002 RMK A01 T01500093  RH  071%=      5-min Rain = 0
KTIS 300410Z 01006KT 15/09 A3002 RMK A01 T01490093  RH  071%=      5-min Rain = 0
KTIS 300415Z 02006KT 15/09 A3003 RMK A01 T01490092  RH  071%=      5-min Rain = 0
KTIS 300420Z 03006KT 15/09 A3003 RMK A01 T01480092  RH  071%=      5-min Rain = 0
KTIS 300425Z 04005KT 15/09 A3003 RMK A01 T01470092  RH  071%=      5-min Rain = 0
KTIS 300430Z 04006KT 14/09 A3003 RMK A01 T01440092  RH  073%=      5-min Rain = 0
KTIS 300435Z 04006KT 14/09 A3003 RMK A01 T01400092  RH  075%=      5-min Rain = 0
KTIS 300440Z 04006KT 14/09 A3003 RMK A01 T01360092  RH  077%=      5-min Rain = 0
KTIS 300445Z 06006KT 13/09 A3003 RMK A01 T01300091  RH  080%=      5-min Rain = 0
KTIS 300450Z 05006KT 13/09 A3003 RMK A01 T01270090  RH  081%=      5-min Rain = 0
KTIS 300455Z 04006KT 13/09 A3003 RMK A01 T01260091  RH  082%=      5-min Rain = 0

Page generated in 0.0094 seconds.